createdAt,value
2023-03-23T15:59:01.617Z,21.40
2023-03-23T16:01:34.215Z,21.40
2023-03-23T16:04:14.390Z,21.30
2023-03-23T16:06:46.932Z,21.30
2023-03-23T16:09:21.057Z,21.30
2023-03-23T16:11:53.165Z,21.20
2023-03-23T16:14:25.715Z,21.10
2023-03-23T16:16:58.029Z,21.00
2023-03-23T16:19:30.499Z,20.90
2023-03-23T16:22:02.375Z,20.80
2023-03-23T16:24:34.675Z,20.70
2023-03-23T16:27:10.069Z,20.50
2023-03-23T16:30:02.026Z,20.40
2023-03-23T16:35:09.159Z,20.10
2023-03-23T16:37:46.520Z,20.00
2023-03-23T16:40:23.832Z,20.00
2023-03-23T16:42:56.142Z,19.80
2023-03-23T16:45:28.217Z,19.80
2023-03-23T16:48:01.664Z,19.70
2023-03-23T16:50:34.533Z,19.60
2023-03-23T16:53:08.317Z,19.60
2023-03-23T16:55:41.030Z,19.60
2023-03-23T16:58:18.054Z,19.50
2023-03-23T17:00:52.142Z,19.40
2023-03-23T17:03:24.143Z,19.30
2023-03-23T17:05:56.239Z,19.20
2023-03-23T17:08:29.334Z,19.10
2023-03-23T17:11:02.537Z,19.00
2023-03-23T17:13:34.645Z,18.90
2023-03-23T17:16:07.191Z,18.80
2023-03-23T17:18:39.443Z,18.70
2023-03-23T17:21:12.033Z,18.60
2023-03-23T17:23:43.988Z,18.50
2023-03-23T17:26:16.251Z,18.40
2023-03-23T17:28:48.417Z,18.30
2023-03-23T17:31:20.553Z,18.30
2023-03-23T17:33:52.956Z,18.20
2023-03-23T17:36:25.153Z,18.20
2023-03-23T17:38:57.140Z,18.20
2023-03-23T17:41:29.562Z,18.20
2023-03-23T17:44:01.618Z,18.20
2023-03-23T17:46:34.905Z,18.10
2023-03-23T17:49:07.038Z,18.10
2023-03-23T17:51:38.984Z,17.90
2023-03-23T17:54:11.218Z,17.80
2023-03-23T17:56:43.446Z,17.70
2023-03-23T17:59:16.293Z,17.60
2023-03-23T18:01:48.998Z,17.60
2023-03-23T18:04:22.480Z,17.40
2023-03-23T18:06:56.530Z,17.10
2023-03-23T18:09:28.857Z,16.90
2023-03-23T18:12:01.542Z,16.80
2023-03-23T18:14:33.601Z,16.70
2023-03-23T18:17:05.611Z,16.60
2023-03-23T18:19:41.637Z,16.50
2023-03-23T18:22:13.664Z,16.50
2023-03-23T18:24:45.930Z,16.40
2023-03-23T18:27:17.847Z,16.30
2023-03-23T18:29:49.726Z,16.20
2023-03-23T18:32:21.868Z,16.10
2023-03-23T18:34:53.829Z,16.10
2023-03-23T18:37:26.023Z,16.10
2023-03-23T18:39:57.925Z,16.00
2023-03-23T18:42:30.049Z,15.80
2023-03-23T18:45:02.802Z,15.80
2023-03-23T18:47:37.486Z,15.90
2023-03-23T18:50:11.152Z,15.70
2023-03-23T18:52:43.852Z,15.70
2023-03-23T18:55:16.087Z,15.70
2023-03-23T18:57:48.010Z,15.70
2023-03-23T19:00:21.717Z,15.70
2023-03-23T19:02:53.852Z,15.60
2023-03-23T19:05:26.223Z,15.40
2023-03-23T19:07:59.436Z,15.30
2023-03-23T19:10:31.927Z,15.20
2023-03-23T19:13:03.919Z,15.10
2023-03-23T19:15:40.975Z,15.10
2023-03-23T19:18:13.023Z,15.10
2023-03-23T19:21:12.182Z,15.10
2023-03-23T19:23:37.927Z,15.20
2023-03-23T19:26:19.336Z,15.20
2023-03-23T19:31:26.714Z,15.10
2023-03-23T19:33:59.098Z,15.00
2023-03-23T19:36:31.402Z,14.90
2023-03-23T19:39:05.291Z,14.80
2023-03-23T19:41:38.091Z,14.70
2023-03-23T19:44:10.906Z,14.60
2023-03-23T19:46:43.745Z,14.70
2023-03-23T19:49:15.819Z,14.70
2023-03-23T19:51:50.504Z,14.70
2023-03-23T19:54:22.844Z,14.70
2023-03-23T19:56:55.364Z,14.70
2023-03-23T19:59:27.499Z,14.80
2023-03-23T20:01:59.610Z,14.80
2023-03-23T20:04:31.828Z,14.90
2023-03-23T20:07:07.372Z,14.90
2023-03-23T20:09:39.881Z,14.80
2023-03-23T20:12:12.190Z,14.60
2023-03-23T20:14:45.379Z,14.60
2023-03-23T20:17:17.854Z,14.50
2023-03-23T20:19:49.924Z,14.50
2023-03-23T20:22:21.872Z,14.60
2023-03-23T20:24:54.033Z,14.60
2023-03-23T20:27:26.010Z,14.60
2023-03-23T20:29:58.046Z,14.70
2023-03-23T20:32:33.230Z,14.70
2023-03-23T20:35:09.249Z,14.70
2023-03-23T20:37:41.229Z,14.60
2023-03-23T20:40:17.106Z,14.50
2023-03-23T20:42:49.702Z,14.40
2023-03-23T20:45:21.787Z,14.40
2023-03-23T20:47:53.867Z,14.40
2023-03-23T20:50:25.854Z,14.50
2023-03-23T20:52:57.981Z,14.50
2023-03-23T20:55:29.960Z,14.40
2023-03-23T20:58:02.561Z,14.40
2023-03-23T21:00:34.650Z,14.30
2023-03-23T21:03:12.081Z,14.30
2023-03-23T21:05:45.216Z,14.20
2023-03-23T21:08:18.986Z,14.30
2023-03-23T21:10:51.828Z,14.20
2023-03-23T21:13:24.196Z,14.20
2023-03-23T21:15:56.679Z,14.10
2023-03-23T21:18:29.479Z,14.10
2023-03-23T21:21:01.641Z,14.10
2023-03-23T21:23:34.103Z,14.10
2023-03-23T21:26:10.445Z,14.20
2023-03-23T21:28:43.651Z,14.30
2023-03-23T21:31:17.106Z,14.30
2023-03-23T21:33:50.368Z,14.20
2023-03-23T21:36:22.469Z,14.10
2023-03-23T21:38:55.559Z,14.10
2023-03-23T21:41:30.049Z,14.10
2023-03-23T21:44:15.393Z,14.00
2023-03-23T21:46:47.292Z,14.00
2023-03-23T21:49:19.489Z,13.90
2023-03-23T21:51:51.442Z,13.90
2023-03-23T21:54:23.449Z,13.90
2023-03-23T21:57:03.491Z,14.00
2023-03-23T21:59:35.872Z,13.90
2023-03-23T22:02:11.986Z,13.90
2023-03-23T22:04:44.395Z,13.80
2023-03-23T22:07:16.626Z,13.80
2023-03-23T22:09:48.538Z,13.80
2023-03-23T22:12:21.072Z,13.80
2023-03-23T22:14:53.084Z,13.80
2023-03-23T22:17:25.006Z,13.90
2023-03-23T22:19:57.333Z,13.80
2023-03-23T22:22:29.371Z,13.90
2023-03-23T22:25:01.397Z,13.90
2023-03-23T22:27:33.442Z,13.90
2023-03-23T22:30:06.224Z,13.90
2023-03-23T22:32:38.241Z,13.90
2023-03-23T22:35:12.652Z,13.80
2023-03-23T22:37:44.619Z,13.70
2023-03-23T22:40:17.991Z,13.70
2023-03-23T22:42:51.702Z,13.70
2023-03-23T22:45:25.992Z,13.70
2023-03-23T22:47:59.802Z,13.70
2023-03-23T22:50:31.757Z,13.70
2023-03-23T22:53:03.767Z,13.60
2023-03-23T22:55:35.634Z,13.60
2023-03-23T22:58:07.625Z,13.70
2023-03-23T23:00:43.189Z,13.60
2023-03-23T23:03:15.953Z,13.60
2023-03-23T23:05:50.743Z,13.60
2023-03-23T23:08:23.730Z,13.70
2023-03-23T23:10:58.562Z,13.70
2023-03-23T23:13:32.627Z,13.70
2023-03-23T23:16:07.293Z,13.80
2023-03-23T23:18:40.717Z,13.80
2023-03-23T23:21:16.847Z,13.80
2023-03-23T23:23:51.241Z,13.80
2023-03-23T23:26:23.666Z,13.80
2023-03-23T23:28:55.684Z,13.80
2023-03-23T23:31:31.435Z,13.90
2023-03-23T23:34:04.271Z,13.90
2023-03-23T23:36:37.073Z,13.90
2023-03-23T23:39:09.028Z,14.00
2023-03-23T23:41:40.945Z,13.90
2023-03-23T23:44:12.879Z,13.80
2023-03-23T23:46:44.997Z,13.70
2023-03-23T23:49:16.940Z,13.60
2023-03-23T23:51:49.042Z,13.60
2023-03-23T23:54:23.037Z,13.50
2023-03-23T23:56:55.115Z,13.50
2023-03-23T23:59:27.417Z,13.50
